Seattle Express — A8GU5 — position and weather

sailwx.info

Track history (hours):
 
Tides and Currents Weather Stations Pressure Air Temp Water Temp Dewpoint Dewpoint Depression Visibility Wind Speed Wind Dir Waves Ship Positions

Seattle Express

Last reported at 2015-May-25 12:18 UTC. Time now 2015-May-26 11:32 UTC.
Position N 49°56' W 003°28'.

Length 264.1 m; beam 32.3 m; draft 12.5 m.

Type: Ship (hazmat cat A). MMSI: 636090860.

Date/timePositionNaut miles runAvg speedWind from/ knotsBaromVisibWave heightAir tempDewpointWater temp
2015-May-25 12:18N 49°56' W 003°28'1213.8
2015-May-25 11:27N 49°57' W 003°11'1413.6
2015-May-25 10:26N 50°01' W 002°50'1214.2
2015-May-25 09:33N 50°03' W 002°31'1715.3
2015-May-25 08:28N 50°07' W 002°05'3916.2
2015-May-25 06:04N 50°18' W 001°07'1317.2
2015-May-25 05:20N 50°21' W 000°48'3217.1
2015-May-25 03:29N 50°30' W 000°00'1516.0
2015-May-25 02:33N 50°34' E 000°22'1515.3
2015-May-25 01:33N 50°40' E 000°44'1616.0
2015-May-25 00:33N 50°49' E 001°05'1616.2
2015-May-24 23:33N 50°59' E 001°25'1818.0
2015-May-24 22:34N 51°13' E 001°44'1717.2
2015-May-24 21:34N 51°28' E 001°56'1818.0
2015-May-24 20:33N 51°42' E 002°16'4815.7
2015-May-24 17:27N 52°03' E 003°26'1516.4
2015-May-24 16:33N 52°02' E 003°50'1010.0
2015-May-24 15:33N 51°58' E 004°05'1 0.9
2015-May-24 14:32N 51°58' E 004°04'0 0.0
2015-May-24 13:32N 51°58' E 004°04'0 0.0
2015-May-24 12:32N 51°58' E 004°04'0 0.0
2015-May-24 11:32N 51°58' E 004°04'0 0.0
2015-May-24 10:32N 51°58' E 004°04'0 0.0
2015-May-24 09:32N 51°58' E 004°04'0 0.0
2015-May-24 08:32N 51°58' E 004°04'0 0.0
2015-May-24 07:32N 51°58' E 004°04'0 0.0
2015-May-24 06:32N 51°58' E 004°04'0 0.0
2015-May-24 05:32N 51°58' E 004°04'0 0.0
2015-May-24 04:32N 51°58' E 004°04'0 0.0
2015-May-24 03:32N 51°58' E 004°04'0 0.0
2015-May-24 02:33N 51°58' E 004°04'4 3.5
2015-May-24 01:33N 51°60' E 003°59'8 7.6
2015-May-24 00:33N 52°04' E 003°49'9 9.1
2015-May-23 23:33N 52°10' E 003°38'0 0.1
2015-May-23 22:28N 52°10' E 003°38'0 0.0
2015-May-23 21:31N 52°10' E 003°38'0 0.1
2015-May-23 20:16N 52°10' E 003°38'0 0.2
2015-May-23 19:31N 52°10' E 003°38'0 0.0
2015-May-23 18:04N 52°11' E 003°38'0 0.2
2015-May-23 17:03N 52°10' E 003°38'0 0.1
2015-May-23 16:24N 52°10' E 003°38'0 0.0
2015-May-23 15:12N 52°10' E 003°38'0 0.0
2015-May-23 12:27N 52°10' E 003°38'0 0.0
2015-May-23 11:30N 52°10' E 003°38'0 0.0
2015-May-23 10:24N 52°10' E 003°38'0 0.1
2015-May-23 06:30N 52°11' E 003°38'0 0.0
2015-May-23 03:30N 52°10' E 003°38'0 0.2
2015-May-23 02:33N 52°10' E 003°38'5 5.0
2015-May-23 01:33N 52°13' E 003°45'9 9.4
2015-May-23 00:33N 52°22' E 003°48'10 9.8
2015-May-22 23:33N 52°31' E 003°51'1010.1
2015-May-22 22:33N 52°41' E 003°54'1010.1
2015-May-22 21:33N 52°51' E 003°58'9 8.9
2015-May-22 20:33N 52°59' E 004°03'9 8.9
2015-May-22 19:33N 53°05' E 004°14'8 8.3
2015-May-22 18:33N 53°11' E 004°24'9 9.0
2015-May-22 17:33N 53°19' E 004°29'10 9.7
2015-May-22 16:33N 53°28' E 004°37'1111.3
2015-May-22 15:33N 53°32' E 004°54'1111.4
2015-May-22 14:33N 53°37' E 005°12'1110.8
2015-May-22 13:33N 53°40' E 005°29'1010.0
2015-May-22 12:33N 53°43' E 005°46'9 9.2
2015-May-22 11:33N 53°46' E 006°00'10 9.2
2015-May-22 10:29N 53°49' E 006°16'8 8.9
2015-May-22 09:33N 53°51' E 006°29'9 9.3
2015-May-22 08:33N 53°53' E 006°45'1110.4
2015-May-22 07:31N 53°56' E 007°03'1717.9
2015-May-22 06:34N 53°60' E 007°31'1514.9
2015-May-22 05:33N 53°52' E 007°53'1717.1
2015-May-22 04:33N 53°43' E 008°17'1212.2
2015-May-22 03:33N 53°35' E 008°32'0 0.0
2015-May-22 02:31N 53°35' E 008°32'0 0.0
2015-May-22 01:31N 53°35' E 008°32'0 0.0
2015-May-22 00:31N 53°35' E 008°32'0 0.0
2015-May-21 23:31N 53°35' E 008°32'0 0.0
2015-May-21 22:31N 53°35' E 008°32'0 0.0
2015-May-21 21:31N 53°35' E 008°32'0 0.0
2015-May-21 20:31N 53°35' E 008°32'0 0.0
2015-May-21 19:31N 53°35' E 008°32'4 4.0
2015-May-21 18:33N 53°37' E 008°28'1514.8
2015-May-21 17:33N 53°47' E 008°09'1313.4
2015-May-21 16:33N 53°53' E 007°48'7 6.8
2015-May-21 15:33N 53°54' E 007°37'7 7.1
2015-May-21 14:33N 53°53' E 007°25'8 8.2
2015-May-21 13:33N 53°52' E 007°11'11 9.3
2015-May-21 12:23N 53°50' E 006°53'9 9.7
2015-May-21 11:27N 53°48' E 006°38'1210.0
2015-May-21 10:18N 53°45' E 006°19'7 9.9
2015-May-21 09:33N 53°43' E 006°08'1211.8
2015-May-21 08:33N 53°39' E 005°49'1313.5
2015-May-21 07:33N 53°34' E 005°27'1413.6
2015-May-21 06:33N 53°30' E 005°06'1413.9
2015-May-21 05:33N 53°25' E 004°44'1414.1
2015-May-21 04:32N 53°12' E 004°31'1313.6
2015-May-21 03:34N 53°01' E 004°21'1312.8
2015-May-21 02:33N 52°49' E 004°12'1312.5
2015-May-21 01:33N 52°40' E 003°58'1212.5
2015-May-21 00:33N 52°31' E 003°44'1512.1
2015-May-20 23:18N 52°19' E 003°28'911.7
2015-May-20 22:31N 52°10' E 003°26'1211.6
2015-May-20 21:31N 51°58' E 003°24'1111.5
2015-May-20 20:33N 51°48' E 003°18'1312.7
2015-May-20 19:33N 51°36' E 003°10'1212.5
2015-May-20 18:33N 51°24' E 003°04'1717.4
2015-May-20 17:33N 51°25' E 003°31'1110.7
2015-May-20 16:33N 51°21' E 003°47'10 9.8
2015-May-20 15:34N 51°24' E 004°02'7 7.4
2015-May-20 14:33N 51°22' E 004°13'3 2.7
2015-May-20 13:33N 51°21' E 004°17'1 0.6
2015-May-20 12:33N 51°20' E 004°18'2 1.7
2015-May-20 11:33N 51°20' E 004°20'0 0.0
2015-May-20 10:32N 51°20' E 004°20'0 0.0
2015-May-20 09:32N 51°20' E 004°20'0 0.0
2015-May-20 08:32N 51°20' E 004°20'0 0.0
2015-May-20 07:29N 51°20' E 004°20'0 0.0
2015-May-20 06:25N 51°20' E 004°20'0 0.0
2015-May-20 05:31N 51°20' E 004°20'0 0.0
2015-May-20 04:31N 51°20' E 004°20'0 0.0
2015-May-20 03:31N 51°20' E 004°20'0 0.0
2015-May-20 02:31N 51°20' E 004°20'0 0.0
2015-May-20 01:31N 51°20' E 004°20'0 0.0
2015-May-20 00:31N 51°20' E 004°20'0 0.0
2015-May-19 23:31N 51°20' E 004°20'0 0.0
2015-May-19 22:31N 51°20' E 004°20'0 0.0
2015-May-19 21:31N 51°20' E 004°20'0 0.0
2015-May-19 20:28N 51°20' E 004°20'0 0.0
2015-May-19 19:28N 51°20' E 004°20'0 0.0
2015-May-19 18:31N 51°20' E 004°20'0 0.0
2015-May-19 17:31N 51°20' E 004°20'0 0.0
2015-May-19 16:31N 51°20' E 004°20'0 0.0
2015-May-19 15:31N 51°20' E 004°20'0 0.0
2015-May-19 14:31N 51°20' E 004°20'0 0.0
2015-May-19 13:31N 51°20' E 004°20'0 0.0
2015-May-19 12:31N 51°20' E 004°20'0 0.0
2015-May-19 11:31N 51°20' E 004°20'0 0.0
2015-May-19 10:34N 51°20' E 004°20'2 2.3
2015-May-19 09:34N 51°21' E 004°17'0 0.0
2015-May-19 08:34N 51°21' E 004°17'6 5.9
2015-May-19 07:33N 51°22' E 004°08'7 7.2
2015-May-19 06:33N 51°23' E 003°56'10 9.9
2015-May-19 05:33N 51°26' E 003°41'1111.2
2015-May-19 04:33N 51°24' E 003°23'1615.8
2015-May-19 03:33N 51°23' E 002°58'1414.3
2015-May-19 02:33N 51°22' E 002°35'1111.0
2015-May-19 01:33N 51°19' E 002°19'1918.9
2015-May-19 00:33N 51°10' E 001°52'2019.9
2015-May-18 23:33N 50°56' E 001°29'78218.8
2015-May-17 06:00N 47°24' W 017°42'49320.6 210 / 121030.7 0.3 14.010.2
2015-May-16 06:00N 44°24' W 028°42'   220 / 111033.6 5.4 15.011.3
Track history (hours):
 
Tides and Currents Weather Stations Pressure Air Temp Water Temp Dewpoint Dewpoint Depression Visibility Wind Speed Wind Dir Waves Ship Positions

Seattle Express

Last reported at 2015-May-25 12:18 UTC. Time now 2015-May-26 11:32 UTC.
Position N 49°56' W 003°28'.

Length 264.1 m; beam 32.3 m; draft 12.5 m.

Type: Ship (hazmat cat A). MMSI: 636090860.

Date/timePositionNaut miles runAvg speedWind from/ knotsBaromVisibWave heightAir tempDewpointWater temp
2015-May-25 12:18N 49°56' W 003°28'1213.8
2015-May-25 11:27N 49°57' W 003°11'1413.6
2015-May-25 10:26N 50°01' W 002°50'1214.2
2015-May-25 09:33N 50°03' W 002°31'1715.3
2015-May-25 08:28N 50°07' W 002°05'3916.2
2015-May-25 06:04N 50°18' W 001°07'1317.2
2015-May-25 05:20N 50°21' W 000°48'3217.1
2015-May-25 03:29N 50°30' W 000°00'1516.0
2015-May-25 02:33N 50°34' E 000°22'1515.3
2015-May-25 01:33N 50°40' E 000°44'1616.0
2015-May-25 00:33N 50°49' E 001°05'1616.2
2015-May-24 23:33N 50°59' E 001°25'1818.0
2015-May-24 22:34N 51°13' E 001°44'1717.2
2015-May-24 21:34N 51°28' E 001°56'1818.0
2015-May-24 20:33N 51°42' E 002°16'4815.7
2015-May-24 17:27N 52°03' E 003°26'1516.4
2015-May-24 16:33N 52°02' E 003°50'1010.0
2015-May-24 15:33N 51°58' E 004°05'1 0.9
2015-May-24 14:32N 51°58' E 004°04'0 0.0
2015-May-24 13:32N 51°58' E 004°04'0 0.0
2015-May-24 12:32N 51°58' E 004°04'0 0.0
2015-May-24 11:32N 51°58' E 004°04'0 0.0
2015-May-24 10:32N 51°58' E 004°04'0 0.0
2015-May-24 09:32N 51°58' E 004°04'0 0.0
2015-May-24 08:32N 51°58' E 004°04'0 0.0
2015-May-24 07:32N 51°58' E 004°04'0 0.0
2015-May-24 06:32N 51°58' E 004°04'0 0.0
2015-May-24 05:32N 51°58' E 004°04'0 0.0
2015-May-24 04:32N 51°58' E 004°04'0 0.0
2015-May-24 03:32N 51°58' E 004°04'0 0.0
2015-May-24 02:33N 51°58' E 004°04'4 3.5
2015-May-24 01:33N 51°60' E 003°59'8 7.6
2015-May-24 00:33N 52°04' E 003°49'9 9.1
2015-May-23 23:33N 52°10' E 003°38'0 0.1
2015-May-23 22:28N 52°10' E 003°38'0 0.0
2015-May-23 21:31N 52°10' E 003°38'0 0.1
2015-May-23 20:16N 52°10' E 003°38'0 0.2
2015-May-23 19:31N 52°10' E 003°38'0 0.0
2015-May-23 18:04N 52°11' E 003°38'0 0.2
2015-May-23 17:03N 52°10' E 003°38'0 0.1
2015-May-23 16:24N 52°10' E 003°38'0 0.0
2015-May-23 15:12N 52°10' E 003°38'0 0.0
2015-May-23 12:27N 52°10' E 003°38'0 0.0
2015-May-23 11:30N 52°10' E 003°38'0 0.0
2015-May-23 10:24N 52°10' E 003°38'0 0.1
2015-May-23 06:30N 52°11' E 003°38'0 0.0
2015-May-23 03:30N 52°10' E 003°38'0 0.2
2015-May-23 02:33N 52°10' E 003°38'5 5.0
2015-May-23 01:33N 52°13' E 003°45'9 9.4
2015-May-23 00:33N 52°22' E 003°48'10 9.8
2015-May-22 23:33N 52°31' E 003°51'1010.1
2015-May-22 22:33N 52°41' E 003°54'1010.1
2015-May-22 21:33N 52°51' E 003°58'9 8.9
2015-May-22 20:33N 52°59' E 004°03'9 8.9
2015-May-22 19:33N 53°05' E 004°14'8 8.3
2015-May-22 18:33N 53°11' E 004°24'9 9.0
2015-May-22 17:33N 53°19' E 004°29'10 9.7
2015-May-22 16:33N 53°28' E 004°37'1111.3
2015-May-22 15:33N 53°32' E 004°54'1111.4
2015-May-22 14:33N 53°37' E 005°12'1110.8
2015-May-22 13:33N 53°40' E 005°29'1010.0
2015-May-22 12:33N 53°43' E 005°46'9 9.2
2015-May-22 11:33N 53°46' E 006°00'10 9.2
2015-May-22 10:29N 53°49' E 006°16'8 8.9
2015-May-22 09:33N 53°51' E 006°29'9 9.3
2015-May-22 08:33N 53°53' E 006°45'1110.4
2015-May-22 07:31N 53°56' E 007°03'1717.9
2015-May-22 06:34N 53°60' E 007°31'1514.9
2015-May-22 05:33N 53°52' E 007°53'1717.1
2015-May-22 04:33N 53°43' E 008°17'1212.2
2015-May-22 03:33N 53°35' E 008°32'0 0.0
2015-May-22 02:31N 53°35' E 008°32'0 0.0
2015-May-22 01:31N 53°35' E 008°32'0 0.0
2015-May-22 00:31N 53°35' E 008°32'0 0.0
2015-May-21 23:31N 53°35' E 008°32'0 0.0
2015-May-21 22:31N 53°35' E 008°32'0 0.0
2015-May-21 21:31N 53°35' E 008°32'0 0.0
2015-May-21 20:31N 53°35' E 008°32'0 0.0
2015-May-21 19:31N 53°35' E 008°32'4 4.0
2015-May-21 18:33N 53°37' E 008°28'1514.8
2015-May-21 17:33N 53°47' E 008°09'1313.4
2015-May-21 16:33N 53°53' E 007°48'7 6.8
2015-May-21 15:33N 53°54' E 007°37'7 7.1
2015-May-21 14:33N 53°53' E 007°25'8 8.2
2015-May-21 13:33N 53°52' E 007°11'11 9.3
2015-May-21 12:23N 53°50' E 006°53'9 9.7
2015-May-21 11:27N 53°48' E 006°38'1210.0
2015-May-21 10:18N 53°45' E 006°19'7 9.9
2015-May-21 09:33N 53°43' E 006°08'1211.8
2015-May-21 08:33N 53°39' E 005°49'1313.5
2015-May-21 07:33N 53°34' E 005°27'1413.6
2015-May-21 06:33N 53°30' E 005°06'1413.9
2015-May-21 05:33N 53°25' E 004°44'1414.1
2015-May-21 04:32N 53°12' E 004°31'1313.6
2015-May-21 03:34N 53°01' E 004°21'1312.8
2015-May-21 02:33N 52°49' E 004°12'1312.5
2015-May-21 01:33N 52°40' E 003°58'1212.5
2015-May-21 00:33N 52°31' E 003°44'1512.1
2015-May-20 23:18N 52°19' E 003°28'911.7
2015-May-20 22:31N 52°10' E 003°26'1211.6
2015-May-20 21:31N 51°58' E 003°24'1111.5
2015-May-20 20:33N 51°48' E 003°18'1312.7
2015-May-20 19:33N 51°36' E 003°10'1212.5
2015-May-20 18:33N 51°24' E 003°04'1717.4
2015-May-20 17:33N 51°25' E 003°31'1110.7
2015-May-20 16:33N 51°21' E 003°47'10 9.8
2015-May-20 15:34N 51°24' E 004°02'7 7.4
2015-May-20 14:33N 51°22' E 004°13'3 2.7
2015-May-20 13:33N 51°21' E 004°17'1 0.6
2015-May-20 12:33N 51°20' E 004°18'2 1.7
2015-May-20 11:33N 51°20' E 004°20'0 0.0
2015-May-20 10:32N 51°20' E 004°20'0 0.0
2015-May-20 09:32N 51°20' E 004°20'0 0.0
2015-May-20 08:32N 51°20' E 004°20'0 0.0
2015-May-20 07:29N 51°20' E 004°20'0 0.0
2015-May-20 06:25N 51°20' E 004°20'0 0.0
2015-May-20 05:31N 51°20' E 004°20'0 0.0
2015-May-20 04:31N 51°20' E 004°20'0 0.0
2015-May-20 03:31N 51°20' E 004°20'0 0.0
2015-May-20 02:31N 51°20' E 004°20'0 0.0
2015-May-20 01:31N 51°20' E 004°20'0 0.0
2015-May-20 00:31N 51°20' E 004°20'0 0.0
2015-May-19 23:31N 51°20' E 004°20'0 0.0
2015-May-19 22:31N 51°20' E 004°20'0 0.0
2015-May-19 21:31N 51°20' E 004°20'0 0.0
2015-May-19 20:28N 51°20' E 004°20'0 0.0
2015-May-19 19:28N 51°20' E 004°20'0 0.0
2015-May-19 18:31N 51°20' E 004°20'0 0.0
2015-May-19 17:31N 51°20' E 004°20'0 0.0
2015-May-19 16:31N 51°20' E 004°20'0 0.0
2015-May-19 15:31N 51°20' E 004°20'0 0.0
2015-May-19 14:31N 51°20' E 004°20'0 0.0
2015-May-19 13:31N 51°20' E 004°20'0 0.0
2015-May-19 12:31N 51°20' E 004°20'0 0.0
2015-May-19 11:31N 51°20' E 004°20'0 0.0
2015-May-19 10:34N 51°20' E 004°20'2 2.3
2015-May-19 09:34N 51°21' E 004°17'0 0.0
2015-May-19 08:34N 51°21' E 004°17'6 5.9
2015-May-19 07:33N 51°22' E 004°08'7 7.2
2015-May-19 06:33N 51°23' E 003°56'10 9.9
2015-May-19 05:33N 51°26' E 003°41'1111.2
2015-May-19 04:33N 51°24' E 003°23'1615.8
2015-May-19 03:33N 51°23' E 002°58'1414.3
2015-May-19 02:33N 51°22' E 002°35'1111.0
2015-May-19 01:33N 51°19' E 002°19'1918.9
2015-May-19 00:33N 51°10' E 001°52'2019.9
2015-May-18 23:33N 50°56' E 001°29'78218.8
2015-May-17 06:00N 47°24' W 017°42'49320.6 210 / 121030.7 0.3 14.010.2
2015-May-16 06:00N 44°24' W 028°42'   220 / 111033.6 5.4 15.011.3

Dump ship's entire track history